sensor_id;sensor_type;location;lat;lon;timestamp;P1;durP1;ratioP1;P2;durP2;ratioP2
66707;SDS011;53622;0.000;0.000;2022-10-31T00:01:40;5.32;;;3.40;;
66707;SDS011;53622;0.000;0.000;2022-10-31T00:04:09;4.05;;;3.17;;
66707;SDS011;53622;0.000;0.000;2022-10-31T00:06:38;4.22;;;3.00;;
66707;SDS011;53622;0.000;0.000;2022-10-31T00:09:09;7.70;;;3.70;;
66707;SDS011;53622;0.000;0.000;2022-10-31T00:11:38;3.85;;;3.00;;
66707;SDS011;53622;0.000;0.000;2022-10-31T00:14:09;5.03;;;3.38;;
66707;SDS011;53622;0.000;0.000;2022-10-31T00:16:38;3.38;;;3.00;;
66707;SDS011;53622;0.000;0.000;2022-10-31T00:19:08;4.82;;;3.08;;
66707;SDS011;53622;0.000;0.000;2022-10-31T00:21:37;5.10;;;3.20;;
66707;SDS011;53622;0.000;0.000;2022-10-31T00:24:07;5.18;;;3.53;;
66707;SDS011;53622;0.000;0.000;2022-10-31T00:26:36;4.30;;;3.47;;
66707;SDS011;53622;0.000;0.000;2022-10-31T00:29:05;5.13;;;3.38;;
66707;SDS011;53622;0.000;0.000;2022-10-31T00:31:36;3.92;;;3.50;;
66707;SDS011;53622;0.000;0.000;2022-10-31T00:34:05;4.40;;;3.53;;
66707;SDS011;53622;0.000;0.000;2022-10-31T00:36:35;4.57;;;3.40;;
66707;SDS011;53622;0.000;0.000;2022-10-31T00:39:04;3.88;;;3.40;;
66707;SDS011;53622;0.000;0.000;2022-10-31T00:41:33;3.70;;;3.30;;
66707;SDS011;53622;0.000;0.000;2022-10-31T00:44:02;3.78;;;3.28;;
66707;SDS011;53622;0.000;0.000;2022-10-31T00:46:32;4.25;;;3.60;;
66707;SDS011;53622;0.000;0.000;2022-10-31T00:49:02;4.28;;;3.10;;
66707;SDS011;53622;0.000;0.000;2022-10-31T00:51:32;5.22;;;3.33;;
66707;SDS011;53622;0.000;0.000;2022-10-31T00:54:01;5.38;;;3.28;;
66707;SDS011;53622;0.000;0.000;2022-10-31T00:56:30;4.85;;;3.30;;
66707;SDS011;53622;0.000;0.000;2022-10-31T00:58:59;3.60;;;3.20;;
66707;SDS011;53622;0.000;0.000;2022-10-31T01:01:28;5.03;;;3.40;;
66707;SDS011;53622;0.000;0.000;2022-10-31T01:03:58;3.92;;;3.17;;
66707;SDS011;53622;0.000;0.000;2022-10-31T01:06:28;3.60;;;3.22;;
66707;SDS011;53622;0.000;0.000;2022-10-31T01:08:57;4.00;;;3.63;;
66707;SDS011;53622;0.000;0.000;2022-10-31T01:11:27;4.82;;;3.50;;
66707;SDS011;53622;0.000;0.000;2022-10-31T01:13:56;3.90;;;3.38;;
66707;SDS011;53622;0.000;0.000;2022-10-31T01:16:26;3.70;;;3.40;;
66707;SDS011;53622;0.000;0.000;2022-10-31T01:18:57;5.20;;;3.38;;
66707;SDS011;53622;0.000;0.000;2022-10-31T01:21:27;3.80;;;2.97;;
66707;SDS011;53622;0.000;0.000;2022-10-31T01:23:59;4.38;;;3.30;;
66707;SDS011;53622;0.000;0.000;2022-10-31T01:26:29;4.00;;;3.47;;
66707;SDS011;53622;0.000;0.000;2022-10-31T01:29:00;3.95;;;3.30;;
66707;SDS011;53622;0.000;0.000;2022-10-31T01:31:35;5.63;;;3.42;;
66707;SDS011;53622;0.000;0.000;2022-10-31T01:34:06;4.18;;;3.45;;
66707;SDS011;53622;0.000;0.000;2022-10-31T01:36:37;4.95;;;3.47;;
66707;SDS011;53622;0.000;0.000;2022-10-31T01:39:07;5.32;;;3.90;;
66707;SDS011;53622;0.000;0.000;2022-10-31T01:41:38;4.35;;;3.13;;
66707;SDS011;53622;0.000;0.000;2022-10-31T01:47:21;4.05;;;2.90;;
66707;SDS011;53622;0.000;0.000;2022-10-31T01:50:10;4.82;;;2.70;;
66707;SDS011;53622;0.000;0.000;2022-10-31T01:52:48;5.07;;;3.20;;
66707;SDS011;53622;0.000;0.000;2022-10-31T01:55:20;4.65;;;3.30;;
66707;SDS011;53622;0.000;0.000;2022-10-31T01:57:57;4.60;;;3.38;;
66707;SDS011;53622;0.000;0.000;2022-10-31T02:00:32;4.72;;;3.47;;
66707;SDS011;53622;0.000;0.000;2022-10-31T02:03:01;4.18;;;3.50;;
66707;SDS011;53622;0.000;0.000;2022-10-31T02:05:31;4.43;;;3.40;;
66707;SDS011;53622;0.000;0.000;2022-10-31T02:08:04;4.90;;;3.67;;
66707;SDS011;53622;0.000;0.000;2022-10-31T02:10:36;6.13;;;3.72;;
66707;SDS011;53622;0.000;0.000;2022-10-31T02:13:07;4.10;;;3.63;;
66707;SDS011;53622;0.000;0.000;2022-10-31T02:15:44;5.78;;;3.75;;
66707;SDS011;53622;0.000;0.000;2022-10-31T02:18:15;3.70;;;3.20;;
66707;SDS011;53622;0.000;0.000;2022-10-31T02:20:48;5.53;;;3.60;;
66707;SDS011;53622;0.000;0.000;2022-10-31T02:29:52;5.07;;;3.60;;
66707;SDS011;53622;0.000;0.000;2022-10-31T02:35:44;4.10;;;3.53;;
66707;SDS011;53622;0.000;0.000;2022-10-31T02:38:24;3.92;;;3.42;;
66707;SDS011;53622;0.000;0.000;2022-10-31T02:41:01;5.82;;;3.83;;
66707;SDS011;53622;0.000;0.000;2022-10-31T02:43:45;4.53;;;3.60;;
66707;SDS011;53622;0.000;0.000;2022-10-31T02:46:27;5.60;;;3.17;;
66707;SDS011;53622;0.000;0.000;2022-10-31T02:49:03;5.55;;;3.55;;
66707;SDS011;53622;0.000;0.000;2022-10-31T02:51:39;5.03;;;3.58;;
66707;SDS011;53622;0.000;0.000;2022-10-31T02:54:19;4.65;;;3.65;;
66707;SDS011;53622;0.000;0.000;2022-10-31T02:56:53;4.82;;;3.72;;
66707;SDS011;53622;0.000;0.000;2022-10-31T02:59:27;6.32;;;3.90;;
66707;SDS011;53622;0.000;0.000;2022-10-31T03:02:14;3.92;;;3.38;;
66707;SDS011;53622;0.000;0.000;2022-10-31T03:05:03;5.20;;;3.58;;
66707;SDS011;53622;0.000;0.000;2022-10-31T03:07:53;5.47;;;3.78;;
66707;SDS011;53622;0.000;0.000;2022-10-31T03:10:31;4.65;;;3.53;;
66707;SDS011;53622;0.000;0.000;2022-10-31T03:13:08;4.75;;;3.53;;
66707;SDS011;53622;0.000;0.000;2022-10-31T03:15:43;4.18;;;3.58;;
66707;SDS011;53622;0.000;0.000;2022-10-31T03:18:15;4.47;;;3.55;;
66707;SDS011;53622;0.000;0.000;2022-10-31T03:20:51;3.95;;;3.28;;
66707;SDS011;53622;0.000;0.000;2022-10-31T03:23:25;5.30;;;3.70;;
66707;SDS011;53622;0.000;0.000;2022-10-31T03:25:56;5.05;;;3.58;;
66707;SDS011;53622;0.000;0.000;2022-10-31T03:28:29;3.92;;;3.58;;
66707;SDS011;53622;0.000;0.000;2022-10-31T03:31:04;4.93;;;3.60;;
66707;SDS011;53622;0.000;0.000;2022-10-31T03:33:38;3.97;;;3.60;;
66707;SDS011;53622;0.000;0.000;2022-10-31T03:36:10;4.13;;;3.38;;
66707;SDS011;53622;0.000;0.000;2022-10-31T03:38:43;4.63;;;3.53;;
66707;SDS011;53622;0.000;0.000;2022-10-31T03:41:18;3.70;;;3.40;;
66707;SDS011;53622;0.000;0.000;2022-10-31T03:43:52;3.97;;;3.60;;
66707;SDS011;53622;0.000;0.000;2022-10-31T03:46:26;4.18;;;3.78;;
66707;SDS011;53622;0.000;0.000;2022-10-31T03:48:57;4.53;;;3.50;;
66707;SDS011;53622;0.000;0.000;2022-10-31T03:51:30;3.92;;;3.63;;
66707;SDS011;53622;0.000;0.000;2022-10-31T03:54:08;4.07;;;3.47;;
66707;SDS011;53622;0.000;0.000;2022-10-31T03:56:44;4.75;;;3.67;;
66707;SDS011;53622;0.000;0.000;2022-10-31T03:59:19;4.35;;;3.72;;
66707;SDS011;53622;0.000;0.000;2022-10-31T04:01:53;4.40;;;3.22;;
66707;SDS011;53622;0.000;0.000;2022-10-31T04:04:26;4.07;;;3.67;;
66707;SDS011;53622;0.000;0.000;2022-10-31T04:06:58;4.00;;;3.50;;
66707;SDS011;53622;0.000;0.000;2022-10-31T04:09:30;4.43;;;3.60;;
66707;SDS011;53622;0.000;0.000;2022-10-31T04:12:03;5.18;;;3.30;;
66707;SDS011;53622;0.000;0.000;2022-10-31T04:14:59;4.05;;;3.65;;
66707;SDS011;53622;0.000;0.000;2022-10-31T04:17:33;4.45;;;3.45;;
66707;SDS011;53622;0.000;0.000;2022-10-31T04:20:06;5.03;;;3.90;;
66707;SDS011;53622;0.000;0.000;2022-10-31T04:22:38;4.35;;;3.90;;
66707;SDS011;53622;0.000;0.000;2022-10-31T04:25:08;3.55;;;3.25;;
66707;SDS011;53622;0.000;0.000;2022-10-31T04:27:38;3.80;;;3.38;;
66707;SDS011;53622;0.000;0.000;2022-10-31T04:30:09;4.65;;;3.53;;
66707;SDS011;53622;0.000;0.000;2022-10-31T04:32:40;3.38;;;3.08;;
66707;SDS011;53622;0.000;0.000;2022-10-31T04:35:09;5.22;;;3.80;;
66707;SDS011;53622;0.000;0.000;2022-10-31T04:37:40;3.42;;;3.13;;
66707;SDS011;53622;0.000;0.000;2022-10-31T04:40:09;4.88;;;3.25;;
66707;SDS011;53622;0.000;0.000;2022-10-31T04:43:05;3.92;;;3.50;;
66707;SDS011;53622;0.000;0.000;2022-10-31T04:45:34;3.65;;;3.28;;
66707;SDS011;53622;0.000;0.000;2022-10-31T04:48:04;4.28;;;3.50;;
66707;SDS011;53622;0.000;0.000;2022-10-31T04:50:35;5.63;;;3.63;;
66707;SDS011;53622;0.000;0.000;2022-10-31T04:53:05;3.65;;;3.35;;
66707;SDS011;53622;0.000;0.000;2022-10-31T04:55:44;4.05;;;3.42;;
66707;SDS011;53622;0.000;0.000;2022-10-31T04:58:13;4.32;;;3.92;;
66707;SDS011;53622;0.000;0.000;2022-10-31T05:00:43;4.82;;;3.40;;
66707;SDS011;53622;0.000;0.000;2022-10-31T05:03:13;3.63;;;3.30;;
66707;SDS011;53622;0.000;0.000;2022-10-31T05:05:43;4.82;;;3.25;;
66707;SDS011;53622;0.000;0.000;2022-10-31T05:08:14;4.45;;;3.33;;
66707;SDS011;53622;0.000;0.000;2022-10-31T05:10:48;4.25;;;3.58;;
66707;SDS011;53622;0.000;0.000;2022-10-31T05:13:17;4.82;;;3.20;;
66707;SDS011;53622;0.000;0.000;2022-10-31T05:16:05;3.78;;;3.42;;
66707;SDS011;53622;0.000;0.000;2022-10-31T05:18:38;3.72;;;3.38;;
66707;SDS011;53622;0.000;0.000;2022-10-31T05:21:16;4.72;;;3.67;;
66707;SDS011;53622;0.000;0.000;2022-10-31T05:23:55;5.13;;;3.42;;
66707;SDS011;53622;0.000;0.000;2022-10-31T05:26:24;4.47;;;3.80;;
66707;SDS011;53622;0.000;0.000;2022-10-31T05:28:55;5.00;;;3.85;;
66707;SDS011;53622;0.000;0.000;2022-10-31T05:31:24;4.30;;;3.65;;
66707;SDS011;53622;0.000;0.000;2022-10-31T05:33:53;4.38;;;3.63;;
66707;SDS011;53622;0.000;0.000;2022-10-31T05:36:41;3.83;;;3.40;;
66707;SDS011;53622;0.000;0.000;2022-10-31T05:39:15;4.32;;;3.42;;
66707;SDS011;53622;0.000;0.000;2022-10-31T05:41:50;5.28;;;3.83;;
66707;SDS011;53622;0.000;0.000;2022-10-31T05:44:24;4.55;;;3.60;;
66707;SDS011;53622;0.000;0.000;2022-10-31T05:47:13;4.57;;;3.40;;
66707;SDS011;53622;0.000;0.000;2022-10-31T05:49:55;4.03;;;3.60;;
66707;SDS011;53622;0.000;0.000;2022-10-31T05:52:39;5.55;;;3.63;;
66707;SDS011;53622;0.000;0.000;2022-10-31T05:55:29;4.30;;;3.65;;
66707;SDS011;53622;0.000;0.000;2022-10-31T05:58:19;4.80;;;3.38;;
66707;SDS011;53622;0.000;0.000;2022-10-31T06:01:08;5.40;;;3.80;;
66707;SDS011;53622;0.000;0.000;2022-10-31T06:03:37;3.80;;;3.40;;
66707;SDS011;53622;0.000;0.000;2022-10-31T06:06:09;4.60;;;3.45;;
66707;SDS011;53622;0.000;0.000;2022-10-31T06:08:40;4.18;;;3.83;;
66707;SDS011;53622;0.000;0.000;2022-10-31T06:11:15;4.38;;;3.80;;
66707;SDS011;53622;0.000;0.000;2022-10-31T06:14:13;4.90;;;3.83;;
66707;SDS011;53622;0.000;0.000;2022-10-31T06:16:51;4.82;;;3.55;;
66707;SDS011;53622;0.000;0.000;2022-10-31T06:19:40;4.30;;;3.63;;
66707;SDS011;53622;0.000;0.000;2022-10-31T06:22:13;4.15;;;3.42;;
66707;SDS011;53622;0.000;0.000;2022-10-31T06:24:43;4.15;;;3.75;;
66707;SDS011;53622;0.000;0.000;2022-10-31T06:27:29;6.25;;;3.80;;
66707;SDS011;53622;0.000;0.000;2022-10-31T06:30:05;4.75;;;3.47;;
66707;SDS011;53622;0.000;0.000;2022-10-31T06:32:36;8.00;;;3.88;;
66707;SDS011;53622;0.000;0.000;2022-10-31T06:35:06;4.80;;;3.47;;
66707;SDS011;53622;0.000;0.000;2022-10-31T06:37:36;6.82;;;3.50;;
66707;SDS011;53622;0.000;0.000;2022-10-31T06:40:37;5.00;;;3.60;;
66707;SDS011;53622;0.000;0.000;2022-10-31T06:43:18;7.13;;;3.60;;
66707;SDS011;53622;0.000;0.000;2022-10-31T06:45:50;6.50;;;3.65;;
66707;SDS011;53622;0.000;0.000;2022-10-31T06:48:31;8.45;;;3.72;;
66707;SDS011;53622;0.000;0.000;2022-10-31T06:51:27;6.63;;;3.83;;
66707;SDS011;53622;0.000;0.000;2022-10-31T06:53:58;6.50;;;3.83;;
66707;SDS011;53622;0.000;0.000;2022-10-31T06:56:28;6.40;;;3.67;;
66707;SDS011;53622;0.000;0.000;2022-10-31T06:58:59;8.90;;;4.10;;
66707;SDS011;53622;0.000;0.000;2022-10-31T07:01:57;5.38;;;3.40;;
66707;SDS011;53622;0.000;0.000;2022-10-31T07:04:28;7.07;;;3.45;;
66707;SDS011;53622;0.000;0.000;2022-10-31T07:06:57;9.85;;;4.00;;
66707;SDS011;53622;0.000;0.000;2022-10-31T07:09:26;6.57;;;3.70;;
66707;SDS011;53622;0.000;0.000;2022-10-31T07:11:58;5.50;;;3.50;;
66707;SDS011;53622;0.000;0.000;2022-10-31T07:14:30;6.13;;;3.70;;
66707;SDS011;53622;0.000;0.000;2022-10-31T07:17:01;8.60;;;4.03;;
66707;SDS011;53622;0.000;0.000;2022-10-31T07:19:37;6.90;;;3.88;;
66707;SDS011;53622;0.000;0.000;2022-10-31T07:22:07;7.07;;;3.45;;
66707;SDS011;53622;0.000;0.000;2022-10-31T07:24:38;8.98;;;3.80;;
66707;SDS011;53622;0.000;0.000;2022-10-31T07:27:34;8.65;;;4.07;;
66707;SDS011;53622;0.000;0.000;2022-10-31T07:30:12;12.82;;;4.13;;
66707;SDS011;53622;0.000;0.000;2022-10-31T07:32:42;7.05;;;3.85;;
66707;SDS011;53622;0.000;0.000;2022-10-31T07:35:15;8.18;;;3.95;;
66707;SDS011;53622;0.000;0.000;2022-10-31T07:37:47;8.23;;;3.85;;
66707;SDS011;53622;0.000;0.000;2022-10-31T07:40:18;6.85;;;3.90;;
66707;SDS011;53622;0.000;0.000;2022-10-31T07:42:48;6.65;;;3.30;;
66707;SDS011;53622;0.000;0.000;2022-10-31T07:45:45;5.80;;;3.45;;
66707;SDS011;53622;0.000;0.000;2022-10-31T07:48:36;5.25;;;3.85;;
66707;SDS011;53622;0.000;0.000;2022-10-31T07:51:24;5.97;;;3.92;;
66707;SDS011;53622;0.000;0.000;2022-10-31T07:54:29;6.57;;;3.97;;
66707;SDS011;53622;0.000;0.000;2022-10-31T07:56:58;5.97;;;3.30;;
66707;SDS011;53622;0.000;0.000;2022-10-31T07:59:28;8.48;;;3.78;;
66707;SDS011;53622;0.000;0.000;2022-10-31T08:01:59;7.47;;;4.32;;
66707;SDS011;53622;0.000;0.000;2022-10-31T08:04:31;7.13;;;3.88;;
66707;SDS011;53622;0.000;0.000;2022-10-31T08:07:23;6.30;;;3.92;;
66707;SDS011;53622;0.000;0.000;2022-10-31T08:09:59;5.53;;;3.72;;
66707;SDS011;53622;0.000;0.000;2022-10-31T08:12:30;8.65;;;3.53;;
66707;SDS011;53622;0.000;0.000;2022-10-31T08:15:00;8.63;;;4.07;;
66707;SDS011;53622;0.000;0.000;2022-10-31T08:17:30;6.55;;;3.38;;
66707;SDS011;53622;0.000;0.000;2022-10-31T08:20:04;5.40;;;3.60;;
66707;SDS011;53622;0.000;0.000;2022-10-31T08:22:52;6.68;;;3.60;;
66707;SDS011;53622;0.000;0.000;2022-10-31T08:25:22;6.43;;;3.67;;
66707;SDS011;53622;0.000;0.000;2022-10-31T08:27:52;6.13;;;4.00;;
66707;SDS011;53622;0.000;0.000;2022-10-31T08:30:23;5.22;;;3.63;;
66707;SDS011;53622;0.000;0.000;2022-10-31T08:33:16;8.27;;;3.92;;
66707;SDS011;53622;0.000;0.000;2022-10-31T08:36:05;7.60;;;3.60;;
66707;SDS011;53622;0.000;0.000;2022-10-31T08:38:49;4.80;;;4.00;;
66707;SDS011;53622;0.000;0.000;2022-10-31T08:41:27;5.20;;;3.60;;
66707;SDS011;53622;0.000;0.000;2022-10-31T08:43:57;6.00;;;4.07;;
66707;SDS011;53622;0.000;0.000;2022-10-31T08:46:27;4.72;;;3.80;;
66707;SDS011;53622;0.000;0.000;2022-10-31T08:48:57;5.80;;;3.85;;
66707;SDS011;53622;0.000;0.000;2022-10-31T08:51:27;5.32;;;3.45;;
66707;SDS011;53622;0.000;0.000;2022-10-31T08:53:57;4.35;;;3.53;;
66707;SDS011;53622;0.000;0.000;2022-10-31T08:56:32;6.78;;;3.78;;
66707;SDS011;53622;0.000;0.000;2022-10-31T08:59:05;4.93;;;3.72;;
66707;SDS011;53622;0.000;0.000;2022-10-31T09:01:53;4.80;;;3.95;;
66707;SDS011;53622;0.000;0.000;2022-10-31T09:04:24;10.57;;;4.20;;
66707;SDS011;53622;0.000;0.000;2022-10-31T09:06:54;6.68;;;3.65;;
66707;SDS011;53622;0.000;0.000;2022-10-31T09:09:43;8.50;;;3.72;;
66707;SDS011;53622;0.000;0.000;2022-10-31T09:12:13;7.45;;;3.88;;
66707;SDS011;53622;0.000;0.000;2022-10-31T09:15:01;6.55;;;4.07;;
66707;SDS011;53622;0.000;0.000;2022-10-31T09:17:50;6.93;;;3.83;;
66707;SDS011;53622;0.000;0.000;2022-10-31T09:20:41;8.18;;;4.30;;
66707;SDS011;53622;0.000;0.000;2022-10-31T09:23:13;9.60;;;4.30;;
66707;SDS011;53622;0.000;0.000;2022-10-31T09:25:43;12.90;;;4.40;;
66707;SDS011;53622;0.000;0.000;2022-10-31T09:28:33;16.13;;;5.47;;
66707;SDS011;53622;0.000;0.000;2022-10-31T09:31:11;10.45;;;5.53;;
66707;SDS011;53622;0.000;0.000;2022-10-31T09:33:46;9.23;;;5.07;;
66707;SDS011;53622;0.000;0.000;2022-10-31T09:36:42;14.02;;;5.50;;
66707;SDS011;53622;0.000;0.000;2022-10-31T09:39:18;30.80;;;9.18;;
66707;SDS011;53622;0.000;0.000;2022-10-31T09:45:17;60.95;;;17.38;;
66707;SDS011;53622;0.000;0.000;2022-10-31T09:48:00;86.20;;;21.48;;
66707;SDS011;53622;0.000;0.000;2022-10-31T09:51:03;37.90;;;11.93;;
66707;SDS011;53622;0.000;0.000;2022-10-31T09:53:43;91.40;;;25.88;;
66707;SDS011;53622;0.000;0.000;2022-10-31T09:56:21;66.90;;;20.48;;
66707;SDS011;53622;0.000;0.000;2022-10-31T09:58:55;95.15;;;24.15;;
66707;SDS011;53622;0.000;0.000;2022-10-31T10:01:39;77.70;;;23.10;;
66707;SDS011;53622;0.000;0.000;2022-10-31T10:07:35;79.10;;;22.20;;
66707;SDS011;53622;0.000;0.000;2022-10-31T10:10:35;89.75;;;21.88;;
66707;SDS011;53622;0.000;0.000;2022-10-31T10:13:38;74.82;;;22.13;;
66707;SDS011;53622;0.000;0.000;2022-10-31T10:16:28;68.07;;;19.38;;
66707;SDS011;53622;0.000;0.000;2022-10-31T10:19:14;73.82;;;20.73;;
66707;SDS011;53622;0.000;0.000;2022-10-31T10:21:55;61.97;;;18.83;;
66707;SDS011;53622;0.000;0.000;2022-10-31T10:24:34;61.53;;;19.20;;
66707;SDS011;53622;0.000;0.000;2022-10-31T10:27:19;57.17;;;18.42;;
66707;SDS011;53622;0.000;0.000;2022-10-31T10:29:56;54.63;;;16.38;;
66707;SDS011;53622;0.000;0.000;2022-10-31T10:32:31;47.88;;;16.88;;
66707;SDS011;53622;0.000;0.000;2022-10-31T10:35:10;47.50;;;16.90;;
66707;SDS011;53622;0.000;0.000;2022-10-31T10:37:43;44.08;;;15.25;;
66707;SDS011;53622;0.000;0.000;2022-10-31T10:40:16;46.75;;;15.20;;
66707;SDS011;53622;0.000;0.000;2022-10-31T10:42:50;44.72;;;14.50;;
66707;SDS011;53622;0.000;0.000;2022-10-31T10:45:43;44.47;;;14.05;;
66707;SDS011;53622;0.000;0.000;2022-10-31T10:48:42;36.58;;;12.35;;
66707;SDS011;53622;0.000;0.000;2022-10-31T10:51:23;37.38;;;14.20;;
66707;SDS011;53622;0.000;0.000;2022-10-31T10:57:18;32.88;;;11.23;;
66707;SDS011;53622;0.000;0.000;2022-10-31T11:00:15;34.03;;;11.82;;
66707;SDS011;53622;0.000;0.000;2022-10-31T11:02:46;29.88;;;10.50;;
66707;SDS011;53622;0.000;0.000;2022-10-31T11:05:20;27.90;;;10.43;;
66707;SDS011;53622;0.000;0.000;2022-10-31T11:07:53;27.52;;;10.20;;
66707;SDS011;53622;0.000;0.000;2022-10-31T11:10:22;30.17;;;10.90;;
66707;SDS011;53622;0.000;0.000;2022-10-31T11:13:01;22.10;;;9.77;;
66707;SDS011;53622;0.000;0.000;2022-10-31T11:15:37;26.83;;;9.70;;
66707;SDS011;53622;0.000;0.000;2022-10-31T11:18:20;27.58;;;9.57;;
66707;SDS011;53622;0.000;0.000;2022-10-31T11:20:57;29.73;;;9.93;;
66707;SDS011;53622;0.000;0.000;2022-10-31T11:23:28;25.73;;;9.35;;
66707;SDS011;53622;0.000;0.000;2022-10-31T11:25:58;22.80;;;8.55;;
66707;SDS011;53622;0.000;0.000;2022-10-31T11:28:30;23.17;;;8.18;;
66707;SDS011;53622;0.000;0.000;2022-10-31T11:31:07;22.77;;;8.85;;
66707;SDS011;53622;0.000;0.000;2022-10-31T11:33:45;17.88;;;8.15;;
66707;SDS011;53622;0.000;0.000;2022-10-31T11:36:18;20.73;;;8.05;;
66707;SDS011;53622;0.000;0.000;2022-10-31T11:38:51;20.83;;;7.60;;
66707;SDS011;53622;0.000;0.000;2022-10-31T11:41:24;18.40;;;7.57;;
66707;SDS011;53622;0.000;0.000;2022-10-31T11:43:56;20.73;;;7.68;;
66707;SDS011;53622;0.000;0.000;2022-10-31T11:46:30;22.20;;;7.28;;
66707;SDS011;53622;0.000;0.000;2022-10-31T11:49:04;18.13;;;7.00;;
66707;SDS011;53622;0.000;0.000;2022-10-31T11:51:39;23.20;;;7.93;;
66707;SDS011;53622;0.000;0.000;2022-10-31T11:54:17;21.35;;;7.47;;
66707;SDS011;53622;0.000;0.000;2022-10-31T11:56:49;21.73;;;7.65;;
66707;SDS011;53622;0.000;0.000;2022-10-31T11:59:21;13.65;;;6.88;;
66707;SDS011;53622;0.000;0.000;2022-10-31T12:01:55;18.65;;;7.10;;
66707;SDS011;53622;0.000;0.000;2022-10-31T12:04:28;18.05;;;7.93;;
66707;SDS011;53622;0.000;0.000;2022-10-31T12:07:03;16.90;;;6.78;;
66707;SDS011;53622;0.000;0.000;2022-10-31T12:09:33;17.20;;;7.00;;
66707;SDS011;53622;0.000;0.000;2022-10-31T12:12:10;18.40;;;6.45;;
66707;SDS011;53622;0.000;0.000;2022-10-31T12:15:00;16.77;;;6.72;;
66707;SDS011;53622;0.000;0.000;2022-10-31T12:17:39;16.50;;;6.53;;
66707;SDS011;53622;0.000;0.000;2022-10-31T12:20:17;14.90;;;7.03;;
66707;SDS011;53622;0.000;0.000;2022-10-31T12:22:57;18.30;;;6.38;;
66707;SDS011;53622;0.000;0.000;2022-10-31T12:25:34;16.02;;;5.90;;
66707;SDS011;53622;0.000;0.000;2022-10-31T12:28:18;14.00;;;6.30;;
66707;SDS011;53622;0.000;0.000;2022-10-31T12:31:12;14.43;;;6.10;;
66707;SDS011;53622;0.000;0.000;2022-10-31T12:33:55;14.98;;;6.15;;
66707;SDS011;53622;0.000;0.000;2022-10-31T12:36:41;13.98;;;6.05;;
66707;SDS011;53622;0.000;0.000;2022-10-31T12:39:21;10.02;;;5.65;;
66707;SDS011;53622;0.000;0.000;2022-10-31T12:41:55;15.38;;;6.43;;
66707;SDS011;53622;0.000;0.000;2022-10-31T12:44:47;13.52;;;5.68;;
66707;SDS011;53622;0.000;0.000;2022-10-31T12:47:38;10.60;;;5.47;;
66707;SDS011;53622;0.000;0.000;2022-10-31T12:50:27;13.32;;;6.03;;
66707;SDS011;53622;0.000;0.000;2022-10-31T12:53:07;16.20;;;5.68;;
66707;SDS011;53622;0.000;0.000;2022-10-31T12:55:53;16.25;;;6.40;;
66707;SDS011;53622;0.000;0.000;2022-10-31T12:58:31;13.50;;;5.90;;
66707;SDS011;53622;0.000;0.000;2022-10-31T13:01:06;11.43;;;5.30;;
66707;SDS011;53622;0.000;0.000;2022-10-31T13:03:42;19.63;;;5.78;;
66707;SDS011;53622;0.000;0.000;2022-10-31T13:06:18;12.40;;;5.30;;
66707;SDS011;53622;0.000;0.000;2022-10-31T13:08:51;11.65;;;5.00;;
66707;SDS011;53622;0.000;0.000;2022-10-31T13:11:23;14.20;;;5.55;;
66707;SDS011;53622;0.000;0.000;2022-10-31T13:13:58;14.15;;;5.28;;
66707;SDS011;53622;0.000;0.000;2022-10-31T13:16:33;15.90;;;5.68;;
66707;SDS011;53622;0.000;0.000;2022-10-31T13:19:19;16.77;;;5.85;;
66707;SDS011;53622;0.000;0.000;2022-10-31T13:21:55;13.27;;;5.60;;
66707;SDS011;53622;0.000;0.000;2022-10-31T13:24:30;16.00;;;5.10;;
66707;SDS011;53622;0.000;0.000;2022-10-31T13:27:09;9.60;;;5.18;;
66707;SDS011;53622;0.000;0.000;2022-10-31T13:29:43;13.80;;;5.07;;
66707;SDS011;53622;0.000;0.000;2022-10-31T13:32:22;10.77;;;5.18;;
66707;SDS011;53622;0.000;0.000;2022-10-31T13:34:54;34.90;;;6.65;;
66707;SDS011;53622;0.000;0.000;2022-10-31T13:37:29;11.80;;;5.20;;
66707;SDS011;53622;0.000;0.000;2022-10-31T13:40:05;15.25;;;5.32;;
66707;SDS011;53622;0.000;0.000;2022-10-31T13:42:47;17.55;;;5.35;;
66707;SDS011;53622;0.000;0.000;2022-10-31T13:45:23;12.20;;;5.45;;
66707;SDS011;53622;0.000;0.000;2022-10-31T13:47:55;12.95;;;4.68;;
66707;SDS011;53622;0.000;0.000;2022-10-31T13:50:26;9.52;;;4.72;;
66707;SDS011;53622;0.000;0.000;2022-10-31T13:53:09;9.93;;;4.68;;
66707;SDS011;53622;0.000;0.000;2022-10-31T13:55:42;10.32;;;4.72;;
66707;SDS011;53622;0.000;0.000;2022-10-31T13:58:23;13.95;;;5.63;;
66707;SDS011;53622;0.000;0.000;2022-10-31T14:03:56;13.25;;;4.95;;
66707;SDS011;53622;0.000;0.000;2022-10-31T14:06:42;14.77;;;5.45;;
66707;SDS011;53622;0.000;0.000;2022-10-31T14:09:28;18.85;;;5.80;;
66707;SDS011;53622;0.000;0.000;2022-10-31T14:12:01;29.25;;;6.28;;
66707;SDS011;53622;0.000;0.000;2022-10-31T14:14:42;14.10;;;5.85;;
66707;SDS011;53622;0.000;0.000;2022-10-31T14:17:16;13.32;;;5.13;;
66707;SDS011;53622;0.000;0.000;2022-10-31T14:26:30;13.43;;;5.22;;
66707;SDS011;53622;0.000;0.000;2022-10-31T14:31:56;22.50;;;5.25;;
66707;SDS011;53622;0.000;0.000;2022-10-31T14:34:30;26.27;;;6.38;;
66707;SDS011;53622;0.000;0.000;2022-10-31T14:40:22;15.77;;;5.55;;
66707;SDS011;53622;0.000;0.000;2022-10-31T14:43:07;14.15;;;5.07;;
66707;SDS011;53622;0.000;0.000;2022-10-31T14:45:59;23.23;;;5.60;;
66707;SDS011;53622;0.000;0.000;2022-10-31T14:48:36;19.13;;;5.20;;
66707;SDS011;53622;0.000;0.000;2022-10-31T14:51:27;26.67;;;5.38;;
66707;SDS011;53622;0.000;0.000;2022-10-31T14:54:02;17.60;;;5.40;;
66707;SDS011;53622;0.000;0.000;2022-10-31T14:56:35;17.67;;;5.13;;
66707;SDS011;53622;0.000;0.000;2022-10-31T14:59:08;17.25;;;5.00;;
66707;SDS011;53622;0.000;0.000;2022-10-31T15:01:53;17.73;;;5.18;;
66707;SDS011;53622;0.000;0.000;2022-10-31T15:04:26;19.30;;;4.90;;
66707;SDS011;53622;0.000;0.000;2022-10-31T15:07:00;13.25;;;4.95;;
66707;SDS011;53622;0.000;0.000;2022-10-31T15:09:34;15.02;;;4.80;;
66707;SDS011;53622;0.000;0.000;2022-10-31T15:12:16;14.80;;;4.97;;
66707;SDS011;53622;0.000;0.000;2022-10-31T15:14:53;15.38;;;4.85;;
66707;SDS011;53622;0.000;0.000;2022-10-31T15:17:23;14.15;;;4.70;;
66707;SDS011;53622;0.000;0.000;2022-10-31T15:19:54;16.85;;;4.82;;
66707;SDS011;53622;0.000;0.000;2022-10-31T15:22:23;15.38;;;5.00;;
66707;SDS011;53622;0.000;0.000;2022-10-31T15:24:57;15.50;;;4.95;;
66707;SDS011;53622;0.000;0.000;2022-10-31T15:27:27;10.70;;;4.38;;
66707;SDS011;53622;0.000;0.000;2022-10-31T15:29:58;15.68;;;4.60;;
66707;SDS011;53622;0.000;0.000;2022-10-31T15:32:28;16.15;;;5.30;;
66707;SDS011;53622;0.000;0.000;2022-10-31T15:34:57;12.20;;;4.78;;
66707;SDS011;53622;0.000;0.000;2022-10-31T15:37:27;10.20;;;4.28;;
66707;SDS011;53622;0.000;0.000;2022-10-31T15:39:56;15.27;;;4.63;;
66707;SDS011;53622;0.000;0.000;2022-10-31T15:42:39;13.45;;;4.40;;
66707;SDS011;53622;0.000;0.000;2022-10-31T15:45:17;12.07;;;4.60;;
66707;SDS011;53622;0.000;0.000;2022-10-31T15:47:53;14.48;;;4.25;;
66707;SDS011;53622;0.000;0.000;2022-10-31T15:50:27;14.38;;;4.45;;
66707;SDS011;53622;0.000;0.000;2022-10-31T15:53:04;12.60;;;4.15;;
66707;SDS011;53622;0.000;0.000;2022-10-31T15:55:36;10.57;;;3.70;;
66707;SDS011;53622;0.000;0.000;2022-10-31T15:58:16;9.18;;;4.00;;
66707;SDS011;53622;0.000;0.000;2022-10-31T16:00:57;11.85;;;4.50;;
66707;SDS011;53622;0.000;0.000;2022-10-31T16:03:29;14.43;;;4.68;;
66707;SDS011;53622;0.000;0.000;2022-10-31T16:06:00;10.73;;;4.05;;
66707;SDS011;53622;0.000;0.000;2022-10-31T16:08:33;13.93;;;4.18;;
66707;SDS011;53622;0.000;0.000;2022-10-31T16:11:14;14.70;;;4.10;;
66707;SDS011;53622;0.000;0.000;2022-10-31T16:13:53;19.27;;;4.13;;
66707;SDS011;53622;0.000;0.000;2022-10-31T16:16:27;15.65;;;4.43;;
66707;SDS011;53622;0.000;0.000;2022-10-31T16:19:02;16.27;;;4.00;;
66707;SDS011;53622;0.000;0.000;2022-10-31T16:21:35;15.05;;;3.70;;
66707;SDS011;53622;0.000;0.000;2022-10-31T16:24:12;17.35;;;3.67;;
66707;SDS011;53622;0.000;0.000;2022-10-31T16:26:48;10.18;;;3.80;;
66707;SDS011;53622;0.000;0.000;2022-10-31T16:29:25;21.23;;;3.63;;